sensor_id;sensor_type;location;lat;lon;timestamp;pressure;altitude;pressure_sealevel;temperature;humidity
18697;BME280;22617;43.690;27.956;2023-08-20T00:04:43;98934.00;;;21.45;72.07
18697;BME280;22617;43.690;27.956;2023-08-20T00:09:49;98933.53;;;21.54;72.57
18697;BME280;22617;43.690;27.956;2023-08-20T00:14:55;98936.38;;;21.68;72.07
18697;BME280;22617;43.690;27.956;2023-08-20T00:20:03;98928.09;;;21.74;71.70
18697;BME280;22617;43.690;27.956;2023-08-20T00:25:13;98925.91;;;21.83;71.59
18697;BME280;22617;43.690;27.956;2023-08-20T00:30:17;98921.34;;;21.86;71.37
18697;BME280;22617;43.690;27.956;2023-08-20T00:35:22;98924.97;;;21.84;71.54
18697;BME280;22617;43.690;27.956;2023-08-20T00:40:26;98931.31;;;21.81;71.13
18697;BME280;22617;43.690;27.956;2023-08-20T00:45:30;98919.78;;;21.82;71.10
18697;BME280;22617;43.690;27.956;2023-08-20T00:50:35;98919.06;;;21.79;70.84
18697;BME280;22617;43.690;27.956;2023-08-20T00:55:39;98918.28;;;21.77;70.91
18697;BME280;22617;43.690;27.956;2023-08-20T01:00:42;98921.41;;;21.67;70.79
18697;BME280;22617;43.690;27.956;2023-08-20T01:05:51;98921.38;;;21.50;72.05
18697;BME280;22617;43.690;27.956;2023-08-20T01:11:01;98921.81;;;21.41;71.90
18697;BME280;22617;43.690;27.956;2023-08-20T01:16:08;98908.09;;;21.33;72.06
18697;BME280;22617;43.690;27.956;2023-08-20T01:21:20;98910.97;;;21.28;72.23
18697;BME280;22617;43.690;27.956;2023-08-20T01:26:48;98907.81;;;21.20;72.35
18697;BME280;22617;43.690;27.956;2023-08-20T01:31:56;98899.97;;;21.19;72.71
18697;BME280;22617;43.690;27.956;2023-08-20T01:37:00;98903.25;;;21.05;72.21
18697;BME280;22617;43.690;27.956;2023-08-20T01:42:05;98905.91;;;21.05;71.92
18697;BME280;22617;43.690;27.956;2023-08-20T01:47:10;98902.59;;;21.00;72.15
18697;BME280;22617;43.690;27.956;2023-08-20T01:52:13;98894.50;;;20.84;72.73
18697;BME280;22617;43.690;27.956;2023-08-20T01:57:17;98894.78;;;20.78;72.46
18697;BME280;22617;43.690;27.956;2023-08-20T02:02:22;98900.97;;;20.79;72.85
18697;BME280;22617;43.690;27.956;2023-08-20T02:07:25;98903.38;;;20.46;73.77
18697;BME280;22617;43.690;27.956;2023-08-20T02:12:29;98898.47;;;20.57;73.51
18697;BME280;22617;43.690;27.956;2023-08-20T02:17:34;98889.06;;;20.50;73.50
18697;BME280;22617;43.690;27.956;2023-08-20T02:22:39;98898.47;;;20.57;73.78
18697;BME280;22617;43.690;27.956;2023-08-20T02:27:43;98900.25;;;20.75;72.56
18697;BME280;22617;43.690;27.956;2023-08-20T02:32:48;98902.03;;;20.94;72.33
18697;BME280;22617;43.690;27.956;2023-08-20T02:37:52;98905.25;;;21.00;72.10
18697;BME280;22617;43.690;27.956;2023-08-20T02:42:56;98902.09;;;20.92;72.53
18697;BME280;22617;43.690;27.956;2023-08-20T02:48:01;98916.16;;;20.75;73.16
18697;BME280;22617;43.690;27.956;2023-08-20T02:53:04;98912.69;;;20.73;73.37
18697;BME280;22617;43.690;27.956;2023-08-20T02:58:08;98919.34;;;20.82;73.16
18697;BME280;22617;43.690;27.956;2023-08-20T03:03:13;98916.00;;;20.78;73.19
18697;BME280;22617;43.690;27.956;2023-08-20T03:08:18;98921.44;;;20.75;72.89
18697;BME280;22617;43.690;27.956;2023-08-20T03:13:22;98926.31;;;20.84;73.43
18697;BME280;22617;43.690;27.956;2023-08-20T03:18:27;98927.09;;;20.86;73.19
18697;BME280;22617;43.690;27.956;2023-08-20T03:23:30;98927.00;;;21.07;72.52
18697;BME280;22617;43.690;27.956;2023-08-20T03:28:34;98937.38;;;21.11;72.39
18697;BME280;22617;43.690;27.956;2023-08-20T03:33:39;98934.19;;;21.05;72.57
18697;BME280;22617;43.690;27.956;2023-08-20T03:38:43;98929.66;;;21.07;72.95
18697;BME280;22617;43.690;27.956;2023-08-20T03:43:46;98927.50;;;20.96;73.63
18697;BME280;22617;43.690;27.956;2023-08-20T03:48:51;98923.59;;;21.05;73.56
18697;BME280;22617;43.690;27.956;2023-08-20T03:53:55;98924.94;;;20.95;74.11
18697;BME280;22617;43.690;27.956;2023-08-20T03:58:59;98919.28;;;20.83;74.33
18697;BME280;22617;43.690;27.956;2023-08-20T04:04:04;98921.72;;;20.88;75.05
18697;BME280;22617;43.690;27.956;2023-08-20T04:09:08;98921.38;;;20.96;75.25
18697;BME280;22617;43.690;27.956;2023-08-20T04:14:13;98921.66;;;21.08;75.26
18697;BME280;22617;43.690;27.956;2023-08-20T04:19:19;98920.03;;;21.24;74.71
18697;BME280;22617;43.690;27.956;2023-08-20T04:24:22;98922.97;;;21.36;74.59
18697;BME280;22617;43.690;27.956;2023-08-20T04:29:26;98921.66;;;21.44;74.31
18697;BME280;22617;43.690;27.956;2023-08-20T04:34:32;98930.81;;;21.56;73.79
18697;BME280;22617;43.690;27.956;2023-08-20T04:39:35;98936.38;;;21.68;73.40
18697;BME280;22617;43.690;27.956;2023-08-20T04:44:39;98945.75;;;21.75;73.35
18697;BME280;22617;43.690;27.956;2023-08-20T04:49:44;98935.97;;;21.95;72.92
18697;BME280;22617;43.690;27.956;2023-08-20T04:54:49;98938.69;;;22.10;72.03
18697;BME280;22617;43.690;27.956;2023-08-20T04:59:55;98925.38;;;22.28;72.07
18697;BME280;22617;43.690;27.956;2023-08-20T05:05:18;98913.53;;;22.50;70.66
18697;BME280;22617;43.690;27.956;2023-08-20T05:10:24;98918.47;;;22.74;70.02
18697;BME280;22617;43.690;27.956;2023-08-20T05:15:27;98925.53;;;22.90;70.01
18697;BME280;22617;43.690;27.956;2023-08-20T05:20:32;98916.94;;;23.17;68.58
18697;BME280;22617;43.690;27.956;2023-08-20T05:25:36;98911.28;;;23.38;67.91
18697;BME280;22617;43.690;27.956;2023-08-20T05:30:39;98914.16;;;23.65;67.00
18697;BME280;22617;43.690;27.956;2023-08-20T05:35:45;98909.91;;;23.93;66.78
18697;BME280;22617;43.690;27.956;2023-08-20T05:40:49;98909.03;;;24.22;65.23
18697;BME280;22617;43.690;27.956;2023-08-20T05:45:52;98922.25;;;24.52;63.87
18697;BME280;22617;43.690;27.956;2023-08-20T05:50:59;98907.97;;;24.81;62.85
18697;BME280;22617;43.690;27.956;2023-08-20T05:56:03;98906.13;;;25.10;62.64
18697;BME280;22617;43.690;27.956;2023-08-20T06:01:07;98910.13;;;25.44;61.80
18697;BME280;22617;43.690;27.956;2023-08-20T06:06:12;98907.81;;;25.79;60.12
18697;BME280;22617;43.690;27.956;2023-08-20T06:11:15;98905.47;;;25.99;60.01
18697;BME280;22617;43.690;27.956;2023-08-20T06:16:19;98911.44;;;26.30;59.56
18697;BME280;22617;43.690;27.956;2023-08-20T06:21:24;98905.97;;;26.57;58.12
18697;BME280;22617;43.690;27.956;2023-08-20T06:26:27;98912.59;;;26.89;57.83
18697;BME280;22617;43.690;27.956;2023-08-20T06:31:31;98905.03;;;27.19;56.94
18697;BME280;22617;43.690;27.956;2023-08-20T06:36:36;98912.41;;;27.52;55.87
18697;BME280;22617;43.690;27.956;2023-08-20T06:41:40;98906.00;;;27.66;55.44
18697;BME280;22617;43.690;27.956;2023-08-20T06:46:54;98918.91;;;28.07;54.96
18697;BME280;22617;43.690;27.956;2023-08-20T06:51:59;98904.97;;;28.26;54.70
18697;BME280;22617;43.690;27.956;2023-08-20T06:57:02;98909.75;;;28.44;53.55
18697;BME280;22617;43.690;27.956;2023-08-20T07:02:06;98916.97;;;28.66;54.24
18697;BME280;22617;43.690;27.956;2023-08-20T07:07:11;98916.25;;;28.97;53.43
18697;BME280;22617;43.690;27.956;2023-08-20T07:12:16;98910.75;;;29.32;52.57
18697;BME280;22617;43.690;27.956;2023-08-20T07:17:20;98908.97;;;29.54;51.20
18697;BME280;22617;43.690;27.956;2023-08-20T07:22:25;98905.06;;;29.89;51.52
18697;BME280;22617;43.690;27.956;2023-08-20T07:27:29;98909.19;;;30.14;51.19
18697;BME280;22617;43.690;27.956;2023-08-20T07:32:33;98895.28;;;30.30;49.79
18697;BME280;22617;43.690;27.956;2023-08-20T07:37:38;98898.16;;;30.59;48.86
18697;BME280;22617;43.690;27.956;2023-08-20T07:42:41;98898.22;;;30.68;48.32
18697;BME280;22617;43.690;27.956;2023-08-20T07:47:45;98893.78;;;30.98;48.40
18697;BME280;22617;43.690;27.956;2023-08-20T07:52:50;98897.66;;;31.14;49.22
18697;BME280;22617;43.690;27.956;2023-08-20T07:57:54;98898.81;;;31.12;47.45
18697;BME280;22617;43.690;27.956;2023-08-20T08:02:57;98887.94;;;31.52;48.59
18697;BME280;22617;43.690;27.956;2023-08-20T08:08:02;98881.03;;;31.78;46.99
18697;BME280;22617;43.690;27.956;2023-08-20T08:13:06;98884.41;;;31.99;46.39
18697;BME280;22617;43.690;27.956;2023-08-20T08:18:12;98891.09;;;32.15;44.23
18697;BME280;22617;43.690;27.956;2023-08-20T08:23:17;98889.63;;;32.39;45.44
18697;BME280;22617;43.690;27.956;2023-08-20T08:28:21;98893.09;;;32.22;45.54
18697;BME280;22617;43.690;27.956;2023-08-20T08:33:24;98896.84;;;32.39;46.26
18697;BME280;22617;43.690;27.956;2023-08-20T08:38:29;98885.22;;;32.85;46.37
18697;BME280;22617;43.690;27.956;2023-08-20T08:43:33;98889.66;;;33.31;43.19
18697;BME280;22617;43.690;27.956;2023-08-20T08:48:37;98889.34;;;33.34;41.72
18697;BME280;22617;43.690;27.956;2023-08-20T08:53:46;98882.03;;;33.44;42.94
18697;BME280;22617;43.690;27.956;2023-08-20T08:58:49;98885.38;;;33.56;39.96
18697;BME280;22617;43.690;27.956;2023-08-20T09:03:53;98888.41;;;33.70;38.80
18697;BME280;22617;43.690;27.956;2023-08-20T09:09:05;98876.09;;;33.94;36.47
18697;BME280;22617;43.690;27.956;2023-08-20T09:14:20;98888.13;;;34.17;36.79
18697;BME280;22617;43.690;27.956;2023-08-20T09:19:28;98887.41;;;34.33;36.47
18697;BME280;22617;43.690;27.956;2023-08-20T09:24:41;98887.66;;;34.22;37.05
18697;BME280;22617;43.690;27.956;2023-08-20T09:29:46;98872.44;;;34.46;37.99
18697;BME280;22617;43.690;27.956;2023-08-20T09:34:51;98879.81;;;34.36;36.68
18697;BME280;22617;43.690;27.956;2023-08-20T09:39:56;98890.53;;;34.20;36.10
18697;BME280;22617;43.690;27.956;2023-08-20T09:45:02;98876.53;;;34.50;36.28
18697;BME280;22617;43.690;27.956;2023-08-20T09:50:10;98881.59;;;34.79;37.10
18697;BME280;22617;43.690;27.956;2023-08-20T09:55:21;98874.13;;;34.73;35.90
18697;BME280;22617;43.690;27.956;2023-08-20T10:00:26;98876.41;;;34.86;37.15
18697;BME280;22617;43.690;27.956;2023-08-20T10:05:31;98875.06;;;34.90;35.62
18697;BME280;22617;43.690;27.956;2023-08-20T10:10:37;98871.88;;;35.03;37.21
18697;BME280;22617;43.690;27.956;2023-08-20T10:15:41;98869.13;;;35.28;36.63
18697;BME280;22617;43.690;27.956;2023-08-20T10:20:49;98866.75;;;35.50;36.27
18697;BME280;22617;43.690;27.956;2023-08-20T10:26:06;98871.88;;;35.61;35.36
18697;BME280;22617;43.690;27.956;2023-08-20T10:31:11;98870.84;;;35.46;34.56
18697;BME280;22617;43.690;27.956;2023-08-20T10:36:16;98869.66;;;35.56;34.09
18697;BME280;22617;43.690;27.956;2023-08-20T10:41:26;98864.75;;;35.52;33.99
18697;BME280;22617;43.690;27.956;2023-08-20T10:46:30;98849.81;;;35.64;34.66
18697;BME280;22617;43.690;27.956;2023-08-20T10:51:36;98845.81;;;35.76;34.16
18697;BME280;22617;43.690;27.956;2023-08-20T10:56:44;98851.25;;;35.68;34.18
18697;BME280;22617;43.690;27.956;2023-08-20T11:01:49;98834.78;;;35.77;34.98
18697;BME280;22617;43.690;27.956;2023-08-20T11:06:54;98837.16;;;35.89;33.82
18697;BME280;22617;43.690;27.956;2023-08-20T11:11:59;98833.78;;;35.87;34.50
18697;BME280;22617;43.690;27.956;2023-08-20T11:17:03;98835.94;;;35.83;34.07
18697;BME280;22617;43.690;27.956;2023-08-20T11:22:08;98828.81;;;36.22;32.98
18697;BME280;22617;43.690;27.956;2023-08-20T11:27:12;98816.09;;;36.07;33.19
18697;BME280;22617;43.690;27.956;2023-08-20T11:32:16;98810.09;;;36.36;33.50
18697;BME280;22617;43.690;27.956;2023-08-20T11:37:20;98817.13;;;36.06;32.74
18697;BME280;22617;43.690;27.956;2023-08-20T11:42:26;98806.16;;;36.54;32.97
18697;BME280;22617;43.690;27.956;2023-08-20T11:47:29;98803.47;;;36.46;32.34
18697;BME280;22617;43.690;27.956;2023-08-20T11:52:33;98796.19;;;36.39;32.65
18697;BME280;22617;43.690;27.956;2023-08-20T11:57:38;98785.06;;;36.64;32.08
18697;BME280;22617;43.690;27.956;2023-08-20T12:02:42;98781.41;;;36.49;32.53
18697;BME280;22617;43.690;27.956;2023-08-20T12:07:55;98790.22;;;36.90;32.55
18697;BME280;22617;43.690;27.956;2023-08-20T12:13:02;98783.63;;;36.38;32.41
18697;BME280;22617;43.690;27.956;2023-08-20T12:18:06;98775.31;;;36.39;32.04
18697;BME280;22617;43.690;27.956;2023-08-20T12:23:10;98781.44;;;36.33;32.42
18697;BME280;22617;43.690;27.956;2023-08-20T12:28:16;98782.81;;;36.76;31.67
18697;BME280;22617;43.690;27.956;2023-08-20T12:33:19;98781.84;;;36.69;31.07
18697;BME280;22617;43.690;27.956;2023-08-20T12:38:23;98781.09;;;36.83;31.63
18697;BME280;22617;43.690;27.956;2023-08-20T12:43:29;98777.41;;;36.60;31.33
18697;BME280;22617;43.690;27.956;2023-08-20T12:48:33;98763.53;;;36.63;31.82
18697;BME280;22617;43.690;27.956;2023-08-20T12:53:36;98763.94;;;36.36;31.28
18697;BME280;22617;43.690;27.956;2023-08-20T12:58:43;98765.94;;;36.50;31.36
18697;BME280;22617;43.690;27.956;2023-08-20T13:03:47;98762.53;;;36.48;31.42
18697;BME280;22617;43.690;27.956;2023-08-20T13:08:51;98762.63;;;36.70;31.45
18697;BME280;22617;43.690;27.956;2023-08-20T13:13:57;98757.97;;;36.48;31.36
18697;BME280;22617;43.690;27.956;2023-08-20T13:19:01;98766.75;;;36.50;30.60
18697;BME280;22617;43.690;27.956;2023-08-20T13:24:06;98765.63;;;36.37;30.90
18697;BME280;22617;43.690;27.956;2023-08-20T13:29:12;98756.47;;;36.38;31.20
18697;BME280;22617;43.690;27.956;2023-08-20T13:34:15;98753.72;;;36.46;30.59
18697;BME280;22617;43.690;27.956;2023-08-20T13:39:19;98755.78;;;36.44;31.45
18697;BME280;22617;43.690;27.956;2023-08-20T13:44:24;98758.22;;;36.22;30.83
18697;BME280;22617;43.690;27.956;2023-08-20T13:49:28;98760.19;;;35.81;31.04
18697;BME280;22617;43.690;27.956;2023-08-20T13:54:31;98750.97;;;35.99;30.92
18697;BME280;22617;43.690;27.956;2023-08-20T13:59:36;98745.25;;;35.69;30.95
18697;BME280;22617;43.690;27.956;2023-08-20T14:04:40;98747.47;;;35.82;31.21
18697;BME280;22617;43.690;27.956;2023-08-20T14:09:44;98744.72;;;35.50;31.33
18697;BME280;22617;43.690;27.956;2023-08-20T14:14:49;98748.81;;;35.62;31.49
18697;BME280;22617;43.690;27.956;2023-08-20T14:19:52;98753.91;;;35.24;31.26
18697;BME280;22617;43.690;27.956;2023-08-20T14:24:56;98753.69;;;35.10;31.88
18697;BME280;22617;43.690;27.956;2023-08-20T14:30:01;98753.69;;;35.10;31.96
18697;BME280;22617;43.690;27.956;2023-08-20T14:35:06;98751.44;;;34.97;31.90
18697;BME280;22617;43.690;27.956;2023-08-20T14:40:10;98759.06;;;34.93;31.92
18697;BME280;22617;43.690;27.956;2023-08-20T14:45:16;98762.28;;;34.89;31.67
18697;BME280;22617;43.690;27.956;2023-08-20T14:50:19;98760.91;;;34.77;31.54
18697;BME280;22617;43.690;27.956;2023-08-20T14:55:23;98758.25;;;34.59;32.02
18697;BME280;22617;43.690;27.956;2023-08-20T15:00:28;98753.28;;;34.38;31.64
18697;BME280;22617;43.690;27.956;2023-08-20T15:05:31;98750.66;;;34.21;31.89
18697;BME280;22617;43.690;27.956;2023-08-20T15:10:35;98757.44;;;34.25;32.12
18697;BME280;22617;43.690;27.956;2023-08-20T15:15:40;98748.00;;;34.03;32.49
18697;BME280;22617;43.690;27.956;2023-08-20T15:20:43;98748.69;;;33.79;32.56
18697;BME280;22617;43.690;27.956;2023-08-20T15:25:47;98746.13;;;33.78;32.57
18697;BME280;22617;43.690;27.956;2023-08-20T15:30:52;98748.16;;;33.58;32.63
18697;BME280;22617;43.690;27.956;2023-08-20T15:35:57;98744.59;;;33.32;33.32
18697;BME280;22617;43.690;27.956;2023-08-20T15:41:01;98751.44;;;33.26;32.95
18697;BME280;22617;43.690;27.956;2023-08-20T15:46:06;98756.66;;;33.10;33.47
18697;BME280;22617;43.690;27.956;2023-08-20T15:51:10;98753.94;;;32.74;34.27
18697;BME280;22617;43.690;27.956;2023-08-20T15:56:13;98756.72;;;32.65;34.00
18697;BME280;22617;43.690;27.956;2023-08-20T16:01:18;98755.56;;;32.58;34.33
18697;BME280;22617;43.690;27.956;2023-08-20T16:06:21;98750.84;;;32.42;34.01
18697;BME280;22617;43.690;27.956;2023-08-20T16:11:25;98752.84;;;32.40;33.68
18697;BME280;22617;43.690;27.956;2023-08-20T16:16:30;98751.66;;;32.15;33.93
18697;BME280;22617;43.690;27.956;2023-08-20T16:21:33;98762.19;;;32.09;34.54
18697;BME280;22617;43.690;27.956;2023-08-20T16:26:37;98761.38;;;31.98;34.01
18697;BME280;22617;43.690;27.956;2023-08-20T16:31:42;98757.28;;;31.75;34.02
18697;BME280;22617;43.690;27.956;2023-08-20T16:36:46;98760.75;;;31.58;34.15
18697;BME280;22617;43.690;27.956;2023-08-20T16:41:49;98762.72;;;31.27;34.74
18697;BME280;22617;43.690;27.956;2023-08-20T16:46:55;98769.25;;;31.05;35.23
18697;BME280;22617;43.690;27.956;2023-08-20T16:51:58;98763.81;;;30.86;35.40
18697;BME280;22617;43.690;27.956;2023-08-20T16:57:02;98769.59;;;30.72;35.63
18697;BME280;22617;43.690;27.956;2023-08-20T17:02:07;98776.44;;;30.46;36.17
18697;BME280;22617;43.690;27.956;2023-08-20T17:07:11;98771.69;;;30.28;36.31
18697;BME280;22617;43.690;27.956;2023-08-20T17:12:14;98765.91;;;30.03;37.50
18697;BME280;22617;43.690;27.956;2023-08-20T17:17:21;98773.97;;;29.82;38.04
18697;BME280;22617;43.690;27.956;2023-08-20T17:22:24;98782.44;;;29.57;38.55
18697;BME280;22617;43.690;27.956;2023-08-20T17:27:28;98794.00;;;29.36;39.21
18697;BME280;22617;43.690;27.956;2023-08-20T17:32:33;98794.28;;;29.22;40.78
18697;BME280;22617;43.690;27.956;2023-08-20T17:38:01;98805.22;;;28.98;40.17
18697;BME280;22617;43.690;27.956;2023-08-20T17:43:06;98807.84;;;28.78;41.83
18697;BME280;22617;43.690;27.956;2023-08-20T17:48:12;98808.81;;;28.54;41.72
18697;BME280;22617;43.690;27.956;2023-08-20T17:53:17;98816.38;;;28.49;43.03
18697;BME280;22617;43.690;27.956;2023-08-20T17:58:20;98821.94;;;27.91;43.32
18697;BME280;22617;43.690;27.956;2023-08-20T18:03:25;98818.22;;;27.69;43.57
18697;BME280;22617;43.690;27.956;2023-08-20T18:08:29;98828.22;;;27.44;43.87
18697;BME280;22617;43.690;27.956;2023-08-20T18:13:33;98830.91;;;27.20;44.72
18697;BME280;22617;43.690;27.956;2023-08-20T18:18:38;98832.69;;;27.08;45.26
18697;BME280;22617;43.690;27.956;2023-08-20T18:23:42;98840.81;;;26.70;46.22
18697;BME280;22617;43.690;27.956;2023-08-20T18:28:46;98833.25;;;26.52;46.35
18697;BME280;22617;43.690;27.956;2023-08-20T18:33:51;98834.56;;;26.46;46.38
18697;BME280;22617;43.690;27.956;2023-08-20T18:38:54;98837.34;;;26.32;46.55
18697;BME280;22617;43.690;27.956;2023-08-20T18:43:58;98845.69;;;26.27;46.34
18697;BME280;22617;43.690;27.956;2023-08-20T18:49:06;98829.53;;;26.03;46.89
18697;BME280;22617;43.690;27.956;2023-08-20T18:54:09;98840.31;;;26.15;47.50
18697;BME280;22617;43.690;27.956;2023-08-20T18:59:16;98846.41;;;26.17;47.46
18697;BME280;22617;43.690;27.956;2023-08-20T19:04:21;98844.78;;;26.14;47.20
18697;BME280;22617;43.690;27.956;2023-08-20T19:09:26;98853.44;;;25.92;47.84
18697;BME280;22617;43.690;27.956;2023-08-20T19:14:30;98860.69;;;25.65;48.64
18697;BME280;22617;43.690;27.956;2023-08-20T19:19:35;98864.66;;;25.45;49.12
18697;BME280;22617;43.690;27.956;2023-08-20T19:24:38;98874.28;;;25.21;49.75
18697;BME280;22617;43.690;27.956;2023-08-20T19:29:42;98872.34;;;24.96;49.60
18697;BME280;22617;43.690;27.956;2023-08-20T19:34:47;98871.78;;;24.91;50.13
18697;BME280;22617;43.690;27.956;2023-08-20T19:39:50;98865.13;;;24.84;50.70
18697;BME280;22617;43.690;27.956;2023-08-20T19:44:54;98875.78;;;24.84;50.94
18697;BME280;22617;43.690;27.956;2023-08-20T19:49:59;98880.00;;;24.74;51.25
18697;BME280;22617;43.690;27.956;2023-08-20T19:55:05;98877.41;;;24.72;51.15
18697;BME280;22617;43.690;27.956;2023-08-20T20:00:11;98883.78;;;24.56;51.19
18697;BME280;22617;43.690;27.956;2023-08-20T20:05:20;98884.22;;;24.36;51.82
18697;BME280;22617;43.690;27.956;2023-08-20T20:10:24;98879.25;;;24.29;51.81
18697;BME280;22617;43.690;27.956;2023-08-20T20:15:28;98882.06;;;24.12;52.43
18697;BME280;22617;43.690;27.956;2023-08-20T20:20:33;98872.63;;;24.07;52.36
18697;BME280;22617;43.690;27.956;2023-08-20T20:25:39;98881.81;;;23.87;52.52
18697;BME280;22617;43.690;27.956;2023-08-20T20:30:44;98875.66;;;24.01;52.61
18697;BME280;22617;43.690;27.956;2023-08-20T20:35:53;98869.69;;;24.11;52.81
18697;BME280;22617;43.690;27.956;2023-08-20T20:40:56;98867.88;;;23.98;53.27
18697;BME280;22617;43.690;27.956;2023-08-20T20:46:00;98875.84;;;23.83;53.67
18697;BME280;22617;43.690;27.956;2023-08-20T20:51:05;98871.09;;;23.59;53.99
18697;BME280;22617;43.690;27.956;2023-08-20T20:56:08;98871.59;;;23.65;54.14
18697;BME280;22617;43.690;27.956;2023-08-20T21:01:12;98867.22;;;23.64;53.82
18697;BME280;22617;43.690;27.956;2023-08-20T21:06:17;98863.78;;;23.62;53.28
18697;BME280;22617;43.690;27.956;2023-08-20T21:11:20;98854.13;;;23.45;53.39
18697;BME280;22617;43.690;27.956;2023-08-20T21:16:24;98857.50;;;23.18;54.31
18697;BME280;22617;43.690;27.956;2023-08-20T21:21:29;98855.69;;;23.18;55.20
18697;BME280;22617;43.690;27.956;2023-08-20T21:26:32;98855.69;;;23.18;54.42
18697;BME280;22617;43.690;27.956;2023-08-20T21:32:00;98854.69;;;23.05;54.89
18697;BME280;22617;43.690;27.956;2023-08-20T21:37:06;98864.81;;;22.98;55.49
18697;BME280;22617;43.690;27.956;2023-08-20T21:42:10;98855.38;;;22.93;55.00
18697;BME280;22617;43.690;27.956;2023-08-20T21:47:20;98852.38;;;22.83;55.44
18697;BME280;22617;43.690;27.956;2023-08-20T21:52:26;98840.56;;;22.89;55.04
18697;BME280;22617;43.690;27.956;2023-08-20T21:57:29;98845.44;;;22.96;55.25
18697;BME280;22617;43.690;27.956;2023-08-20T22:02:33;98832.25;;;22.95;54.72
18697;BME280;22617;43.690;27.956;2023-08-20T22:07:39;98831.91;;;22.85;55.51
18697;BME280;22617;43.690;27.956;2023-08-20T22:12:43;98834.88;;;22.64;55.89
18697;BME280;22617;43.690;27.956;2023-08-20T22:17:46;98834.03;;;22.63;56.13
18697;BME280;22617;43.690;27.956;2023-08-20T22:22:51;98838.63;;;22.59;56.17
18697;BME280;22617;43.690;27.956;2023-08-20T22:27:55;98828.75;;;22.46;56.01
18697;BME280;22617;43.690;27.956;2023-08-20T22:32:58;98827.66;;;22.50;55.74
18697;BME280;22617;43.690;27.956;2023-08-20T22:38:05;98833.06;;;22.48;56.61
18697;BME280;22617;43.690;27.956;2023-08-20T22:43:09;98829.16;;;22.23;57.38
18697;BME280;22617;43.690;27.956;2023-08-20T22:48:13;98828.47;;;22.19;57.39
18697;BME280;22617;43.690;27.956;2023-08-20T22:53:18;98828.06;;;22.27;57.22
18697;BME280;22617;43.690;27.956;2023-08-20T22:58:22;98830.88;;;22.24;57.12
18697;BME280;22617;43.690;27.956;2023-08-20T23:03:25;98826.16;;;22.13;56.89
18697;BME280;22617;43.690;27.956;2023-08-20T23:08:30;98821.00;;;22.10;56.58
18697;BME280;22617;43.690;27.956;2023-08-20T23:13:34;98819.59;;;22.03;56.71
18697;BME280;22617;43.690;27.956;2023-08-20T23:18:37;98844.91;;;21.58;57.73
18697;BME280;22617;43.690;27.956;2023-08-20T23:23:44;98830.47;;;21.81;57.58
18697;BME280;22617;43.690;27.956;2023-08-20T23:28:47;98822.59;;;21.97;57.45
18697;BME280;22617;43.690;27.956;2023-08-20T23:33:51;98826.47;;;22.07;57.05
18697;BME280;22617;43.690;27.956;2023-08-20T23:38:56;98812.59;;;21.85;57.58
18697;BME280;22617;43.690;27.956;2023-08-20T23:43:59;98812.41;;;21.88;57.53
18697;BME280;22617;43.690;27.956;2023-08-20T23:49:03;98816.72;;;21.90;58.16
18697;BME280;22617;43.690;27.956;2023-08-20T23:54:08;98812.16;;;21.77;57.84
18697;BME280;22617;43.690;27.956;2023-08-20T23:59:11;98808.09;;;21.87;57.80
